Time;durP1;ratioP1;P1;durP2;ratioP2;P2;SDS_P1;SDS_P2;PMS_P1;PMS_P2;Temp;Humidity;BMP_temperature;BMP_pressure;BME280_temperature;BME280_humidity;BME280_pressure;Samples;Min_cycle;Max_cycle;Signal;HPM_P1;HPM_P2
2022/10/18 00:00:54;;;;;;;0.00;0.00;;;16.90;99.90;;;;;;5058268;28;20053;-90
2022/10/18 00:03:22;;;;;;;0.00;0.00;;;16.90;99.90;;;;;;5056567;28;20052;-91
2022/10/18 00:05:49;;;;;;;0.00;0.00;;;16.90;99.90;;;;;;5070738;28;20136;-91
2022/10/18 00:08:17;;;;;;;0.00;0.00;;;16.90;99.90;;;;;;5065823;28;20065;-90
2022/10/18 00:10:45;;;;;;;0.00;0.00;;;16.90;99.90;;;;;;5071454;28;20540;-87
2022/10/18 00:13:13;;;;;;;0.00;0.00;;;16.90;99.90;;;;;;5064383;28;20123;-93
2022/10/18 00:15:47;;;;;;;0.00;0.00;;;16.90;99.90;;;;;;5055883;28;20105;-91
2022/10/18 00:18:14;;;;;;;0.00;0.00;;;16.90;99.90;;;;;;5060609;28;20052;-89
2022/10/18 00:20:41;;;;;;;0.00;0.00;;;17.20;99.90;;;;;;5055937;28;20081;-90
2022/10/18 00:23:08;;;;;;;0.00;0.00;;;16.90;99.90;;;;;;5058706;28;20070;-91
2022/10/18 00:25:38;;;;;;;0.00;0.00;;;17.00;99.90;;;;;;5057329;28;20137;-86
2022/10/18 00:28:05;;;;;;;0.00;0.00;;;;;;;;;;5060524;28;20044;-87
2022/10/18 00:30:34;;;;;;;0.00;0.00;;;16.90;99.90;;;;;;5060545;28;20052;-91
2022/10/18 00:33:05;;;;;;;0.00;0.00;;;;;;;;;;5058967;28;20492;-91
2022/10/18 00:35:34;;;;;;;0.00;0.00;;;16.90;99.90;;;;;;5054886;28;20056;-90
2022/10/18 00:38:01;;;;;;;0.00;0.00;;;;;;;;;;5071663;28;20041;-90
2022/10/18 00:40:28;;;;;;;0.00;0.00;;;16.90;99.90;;;;;;5070761;28;20147;-90
2022/10/18 00:42:56;;;;;;;0.00;0.00;;;16.90;99.90;;;;;;5060168;28;20120;-86
2022/10/18 00:45:28;;;;;;;0.00;0.00;;;;;;;;;;5057930;28;20055;-90
2022/10/18 00:48:06;;;;;;;0.00;0.00;;;16.80;99.90;;;;;;5063308;28;20489;-86
2022/10/18 00:50:34;;;;;;;0.00;0.00;;;16.90;99.90;;;;;;5068404;28;20045;-91
2022/10/18 00:53:11;;;;;;;0.00;0.00;;;16.80;99.90;;;;;;5060333;28;20080;-91
2022/10/18 00:55:38;;;;;;;0.00;0.00;;;16.80;99.90;;;;;;5076815;28;20052;-91
2022/10/18 00:58:11;;;;;;;0.00;0.00;;;16.70;99.90;;;;;;5071629;28;20040;-89
2022/10/18 01:00:46;;;;;;;0.00;0.00;;;;;;;;;;5055313;28;20056;-87
2022/10/18 01:03:15;;;;;;;0.00;0.00;;;16.70;99.90;;;;;;5072185;28;20051;-90
2022/10/18 01:05:45;;;;;;;0.00;0.00;;;16.70;99.90;;;;;;5055695;28;20597;-90
2022/10/18 01:08:39;;;;;;;;;;;16.80;99.90;;;;;;5057722;28;20072;-88
2022/10/18 01:11:48;;;;;;;0.00;0.00;;;16.80;99.90;;;;;;5066987;28;19924;-90
2022/10/18 01:14:29;;;;;;;0.00;0.00;;;16.80;99.90;;;;;;5069528;28;20053;-91
2022/10/18 01:17:07;;;;;;;0.00;0.00;;;18.70;99.90;;;;;;5078209;28;20044;-89
2022/10/18 01:20:00;;;;;;;0.00;0.00;;;16.80;99.90;;;;;;5059097;28;20041;-91
2022/10/18 01:22:33;;;;;;;0.00;0.00;;;17.00;99.90;;;;;;5073502;28;20047;-91
2022/10/18 01:25:12;;;;;;;0.00;0.00;;;16.80;99.90;;;;;;5076346;28;20053;-89
2022/10/18 01:27:56;;;;;;;0.00;0.00;;;16.80;99.90;;;;;;5059228;28;20045;-90
2022/10/18 01:30:38;;;;;;;0.00;0.00;;;16.80;99.90;;;;;;5056133;28;20080;-90
2022/10/18 01:33:14;;;;;;;0.00;0.00;;;16.80;99.90;;;;;;5071486;28;20060;-90
2022/10/18 01:35:50;;;;;;;0.00;0.00;;;16.80;99.90;;;;;;5070652;28;20491;-89
2022/10/18 01:38:23;;;;;;;;;;;16.70;99.90;;;;;;5058337;28;20029;-88
2022/10/18 01:40:53;;;;;;;0.00;0.00;;;17.80;99.90;;;;;;5058120;28;19920;-91
2022/10/18 01:43:24;;;;;;;0.00;0.00;;;16.70;99.90;;;;;;5058725;28;20095;-89
2022/10/18 01:45:58;;;;;;;0.00;0.00;;;16.80;99.90;;;;;;5057164;28;20119;-91
2022/10/18 01:48:25;;;;;;;0.00;0.00;;;16.70;99.90;;;;;;5056201;28;20067;-91
2022/10/18 01:50:54;;;;;;;0.00;0.00;;;16.80;99.90;;;;;;5057018;28;20049;-90
2022/10/18 01:53:36;;;;;;;0.00;0.00;;;;;;;;;;5060881;28;20370;-91
2022/10/18 01:56:20;;;;;;;0.00;0.00;;;16.80;99.90;;;;;;5061513;28;20504;-92
2022/10/18 01:58:59;;;;;;;0.00;0.00;;;16.70;99.90;;;;;;5072151;28;20049;-90
2022/10/18 02:01:38;;;;;;;0.00;0.00;;;16.80;99.90;;;;;;5076023;28;20041;-90
2022/10/18 02:04:15;;;;;;;0.00;0.00;;;16.80;99.90;;;;;;5081344;28;20080;-92
2022/10/18 02:06:44;;;;;;;0.00;0.00;;;16.70;99.90;;;;;;5066916;28;20080;-90
2022/10/18 02:09:16;;;;;;;0.00;0.00;;;16.70;99.90;;;;;;5066757;28;20140;-92
2022/10/18 02:11:47;;;;;;;0.00;0.00;;;16.80;99.90;;;;;;5062556;28;20052;-91
2022/10/18 02:14:17;;;;;;;0.00;0.00;;;16.80;99.90;;;;;;5064376;28;20121;-91
2022/10/18 02:16:49;;;;;;;0.00;0.00;;;16.80;99.90;;;;;;5070354;28;20079;-89
2022/10/18 02:19:21;;;;;;;0.00;0.00;;;16.80;99.90;;;;;;5066371;28;20127;-92
2022/10/18 02:21:50;;;;;;;0.00;0.00;;;16.80;99.90;;;;;;5069672;28;20052;-90
2022/10/18 02:24:18;;;;;;;0.00;0.00;;;;;;;;;;5083194;28;20060;-91
2022/10/18 02:26:44;;;;;;;0.00;0.00;;;16.80;99.90;;;;;;5068194;28;20131;-89
2022/10/18 02:29:12;;;;;;;0.00;0.00;;;16.80;99.90;;;;;;5069647;28;20040;-90
2022/10/18 02:31:43;;;;;;;0.00;0.00;;;16.80;99.90;;;;;;5061364;28;20056;-81
2022/10/18 02:34:17;;;;;;;0.00;0.00;;;16.80;99.90;;;;;;5064115;28;20069;-88
2022/10/18 02:36:47;;;;;;;0.00;0.00;;;16.70;99.90;;;;;;5062899;28;20076;-90
2022/10/18 02:39:19;;;;;;;0.00;0.00;;;16.80;99.90;;;;;;5082311;28;20040;-89
2022/10/18 02:41:46;;;;;;;0.00;0.00;;;16.70;99.90;;;;;;5068836;28;20103;-91
2022/10/18 02:44:13;;;;;;;0.00;0.00;;;16.70;99.90;;;;;;5067546;28;20072;-90
2022/10/18 02:46:41;;;;;;;0.00;0.00;;;16.80;99.90;;;;;;5060623;28;20077;-87
2022/10/18 02:49:08;;;;;;;0.00;0.00;;;16.80;99.90;;;;;;5061080;28;20063;-90
2022/10/18 02:51:36;;;;;;;0.00;0.00;;;17.50;99.90;;;;;;5070136;28;20137;-86
2022/10/18 02:54:03;;;;;;;0.00;0.00;;;17.00;99.90;;;;;;5066337;28;20675;-89
2022/10/18 02:56:30;;;;;;;0.00;0.00;;;16.80;99.90;;;;;;5063365;28;20049;-90
2022/10/18 02:58:57;;;;;;;0.00;0.00;;;16.80;99.90;;;;;;5059317;28;20068;-90
2022/10/18 03:01:24;;;;;;;0.00;0.00;;;16.80;99.90;;;;;;5060951;28;20041;-87
2022/10/18 03:03:51;;;;;;;0.00;0.00;;;16.80;99.90;;;;;;5063136;28;20060;-91
2022/10/18 03:06:17;;;;;;;0.00;0.00;;;17.10;99.90;;;;;;5063009;28;20508;-87
2022/10/18 03:08:46;;;;;;;0.00;0.00;;;16.90;99.90;;;;;;5073670;28;20068;-90
2022/10/18 03:11:13;;;;;;;0.00;0.00;;;16.80;99.90;;;;;;5059476;28;20083;-89
2022/10/18 03:13:39;;;;;;;0.00;0.00;;;16.80;99.90;;;;;;5072693;28;20156;-90
2022/10/18 03:16:06;;;;;;;0.00;0.00;;;16.80;99.90;;;;;;5060296;28;20467;-89
2022/10/18 03:18:33;;;;;;;0.00;0.00;;;16.80;99.90;;;;;;5063844;28;20101;-90
2022/10/18 03:21:03;;;;;;;0.00;0.00;;;16.80;99.90;;;;;;5056386;28;20045;-91
2022/10/18 03:23:30;;;;;;;;;;;17.90;99.90;;;;;;5060969;28;20053;-91
2022/10/18 03:25:58;;;;;;;0.00;0.00;;;16.80;99.90;;;;;;5074306;28;19980;-89
2022/10/18 03:28:25;;;;;;;0.00;0.00;;;;;;;;;;5064059;28;20373;-88
2022/10/18 03:30:52;;;;;;;0.10;0.10;;;16.80;99.90;;;;;;5075853;28;20048;-91
2022/10/18 03:33:19;;;;;;;0.00;0.00;;;16.80;99.90;;;;;;5062865;28;20148;-89
2022/10/18 03:35:46;;;;;;;0.00;0.00;;;16.80;99.90;;;;;;5058700;28;20112;-91
2022/10/18 03:38:13;;;;;;;0.00;0.00;;;16.80;99.90;;;;;;5076924;28;20120;-91
2022/10/18 03:40:40;;;;;;;0.00;0.00;;;;;;;;;;5060675;28;20057;-90
2022/10/18 03:43:08;;;;;;;0.00;0.00;;;16.80;99.90;;;;;;5060430;28;20104;-91
2022/10/18 03:45:35;;;;;;;0.00;0.00;;;16.80;99.90;;;;;;5058519;28;20049;-87
2022/10/18 03:48:02;;;;;;;0.00;0.00;;;16.70;99.90;;;;;;5060484;28;20083;-88
2022/10/18 03:50:29;;;;;;;0.00;0.00;;;16.70;99.90;;;;;;5061096;28;20076;-91
2022/10/18 03:52:56;;;;;;;0.00;0.00;;;16.60;99.90;;;;;;5076534;28;20132;-88
2022/10/18 03:55:23;;;;;;;0.00;0.00;;;16.60;99.90;;;;;;5055818;28;20474;-88
2022/10/18 03:57:50;;;;;;;0.00;0.00;;;16.60;99.90;;;;;;5057843;28;20488;-91
2022/10/18 04:00:18;;;;;;;0.00;0.00;;;16.70;99.90;;;;;;5062602;28;20128;-89
2022/10/18 04:02:45;;;;;;;0.00;0.00;;;16.60;99.90;;;;;;5057175;28;20568;-85
2022/10/18 04:05:14;;;;;;;0.00;0.00;;;16.50;99.90;;;;;;5061823;28;20043;-89
2022/10/18 04:07:40;;;;;;;0.00;0.00;;;16.50;99.90;;;;;;5060896;28;20120;-91
2022/10/18 04:10:21;;;;;;;0.00;0.00;;;16.40;99.90;;;;;;5062340;28;20044;-88
2022/10/18 04:12:52;;;;;;;0.00;0.00;;;;;;;;;;5059732;28;20049;-89
2022/10/18 04:15:26;;;;;;;0.00;0.00;;;16.40;99.90;;;;;;5071994;28;20569;-90
2022/10/18 04:17:56;;;;;;;0.00;0.00;;;16.40;99.90;;;;;;5058185;28;20589;-87
2022/10/18 04:20:27;;;;;;;0.00;0.00;;;;;;;;;;5059865;28;20083;-91
2022/10/18 04:22:56;;;;;;;0.00;0.00;;;;;;;;;;5083073;28;20052;-88
2022/10/18 04:25:24;;;;;;;0.00;0.00;;;16.30;99.90;;;;;;5058474;28;20041;-91
2022/10/18 04:27:51;;;;;;;0.00;0.00;;;16.30;99.90;;;;;;5059294;28;20045;-91
2022/10/18 04:30:17;;;;;;;0.00;0.00;;;16.30;99.90;;;;;;5057639;28;20408;-92
2022/10/18 04:32:46;;;;;;;0.00;0.00;;;16.50;99.90;;;;;;5057529;28;20104;-88
2022/10/18 04:35:16;;;;;;;0.00;0.00;;;16.20;99.90;;;;;;5054869;28;20042;-91
2022/10/18 04:37:49;;;;;;;0.00;0.00;;;;;;;;;;5062215;28;20084;-91
2022/10/18 04:40:18;;;;;;;0.00;0.00;;;;;;;;;;5055451;28;20509;-91
2022/10/18 04:42:46;;;;;;;0.00;0.00;;;;;;;;;;5059858;28;20075;-90
2022/10/18 04:45:16;;;;;;;0.00;0.00;;;;;;;;;;5074957;28;20045;-90
2022/10/18 04:47:43;;;;;;;0.00;0.00;;;16.20;99.90;;;;;;5078448;22;20172;-87
2022/10/18 04:50:11;;;;;;;0.00;0.00;;;16.20;99.90;;;;;;5045224;28;20068;-87
2022/10/18 04:52:38;;;;;;;0.00;0.00;;;16.20;99.90;;;;;;5043703;28;21215;-88
2022/10/18 04:55:06;;;;;;;0.03;0.03;;;16.20;99.90;;;;;;5046881;28;20041;-87
2022/10/18 04:57:33;;;;;;;0.00;0.00;;;;;;;;;;5046812;28;20037;-87
2022/10/18 05:00:00;;;;;;;0.00;0.00;;;16.30;99.90;;;;;;5046932;28;20033;-87
2022/10/18 05:02:27;;;;;;;0.00;0.00;;;16.30;99.90;;;;;;5061986;28;20535;-88
2022/10/18 05:04:54;;;;;;;0.00;0.00;;;16.30;99.90;;;;;;5045997;28;20053;-87
2022/10/18 05:07:22;;;;;;;0.00;0.00;;;16.30;99.90;;;;;;5046330;28;20071;-88
2022/10/18 05:09:49;;;;;;;0.00;0.00;;;17.20;99.90;;;;;;5043211;28;20045;-87
2022/10/18 05:12:16;;;;;;;0.00;0.00;;;16.30;99.90;;;;;;5047377;28;20065;-88
2022/10/18 05:14:43;;;;;;;0.00;0.00;;;16.30;99.90;;;;;;5061487;28;20253;-87
2022/10/18 05:17:10;;;;;;;0.00;0.00;;;16.30;99.90;;;;;;5043641;28;20073;-88
2022/10/18 05:19:36;;;;;;;0.00;0.00;;;16.30;99.90;;;;;;5045918;28;20037;-86
2022/10/18 05:22:03;;;;;;;0.00;0.00;;;16.30;99.90;;;;;;5060511;28;20053;-87
2022/10/18 05:24:31;;;;;;;0.00;0.00;;;16.30;99.90;;;;;;5042468;28;20049;-87
2022/10/18 05:26:58;;;;;;;0.00;0.00;;;16.40;99.90;;;;;;5046625;28;20047;-87
2022/10/18 05:29:25;;;;;;;0.00;0.00;;;16.30;99.90;;;;;;5054226;28;20063;-87
2022/10/18 05:31:53;;;;;;;0.00;0.00;;;16.40;99.90;;;;;;5050009;28;20052;-86
2022/10/18 05:34:20;;;;;;;0.10;0.10;;;16.40;99.90;;;;;;5051138;28;20066;-88
2022/10/18 05:36:48;;;;;;;0.00;0.00;;;;;;;;;;5050051;28;20064;-88
2022/10/18 05:39:15;;;;;;;0.00;0.00;;;16.40;99.90;;;;;;5047449;28;20025;-88
2022/10/18 05:41:43;;;;;;;0.00;0.00;;;16.30;99.90;;;;;;5048753;28;20116;-87
2022/10/18 05:44:10;;;;;;;0.00;0.00;;;16.40;99.90;;;;;;5047566;28;20048;-87
2022/10/18 05:46:37;;;;;;;0.00;0.00;;;16.30;99.90;;;;;;5050796;28;20136;-88
2022/10/18 05:49:04;;;;;;;0.00;0.00;;;16.30;99.90;;;;;;5047581;28;20029;-87
2022/10/18 05:51:31;;;;;;;0.00;0.00;;;17.90;99.90;;;;;;5066179;28;20048;-87
2022/10/18 05:53:57;;;;;;;0.00;0.00;;;16.40;99.90;;;;;;5046690;28;20048;-87
2022/10/18 05:56:24;;;;;;;0.00;0.00;;;16.40;99.90;;;;;;5050271;28;20041;-87
2022/10/18 05:58:52;;;;;;;0.00;0.00;;;16.40;99.90;;;;;;5062484;28;20437;-87
2022/10/18 06:01:20;;;;;;;0.00;0.00;;;16.40;99.90;;;;;;5048308;28;20057;-87
2022/10/18 06:03:47;;;;;;;0.00;0.00;;;16.40;99.90;;;;;;5050395;28;20048;-87
2022/10/18 06:06:14;;;;;;;0.00;0.00;;;16.50;99.90;;;;;;5066240;28;20040;-88
2022/10/18 06:08:42;;;;;;;0.00;0.00;;;16.50;99.90;;;;;;5053739;28;20041;-87
2022/10/18 06:11:11;;;;;;;0.00;0.00;;;16.50;99.90;;;;;;5049238;28;20127;-87
2022/10/18 06:13:40;;;;;;;0.00;0.00;;;16.40;99.90;;;;;;5045852;28;20045;-86
2022/10/18 06:16:09;;;;;;;0.00;0.00;;;16.50;99.90;;;;;;5061030;28;20049;-87
2022/10/18 06:18:36;;;;;;;0.00;0.00;;;16.50;99.90;;;;;;5048063;28;20045;-85
2022/10/18 06:21:03;;;;;;;0.00;0.00;;;16.50;99.90;;;;;;5048978;28;20040;-87
2022/10/18 06:23:30;;;;;;;0.00;0.00;;;16.40;99.90;;;;;;5044874;28;20059;-86
2022/10/18 06:25:58;;;;;;;0.00;0.00;;;16.40;99.90;;;;;;5048108;28;20063;-87
2022/10/18 06:28:25;;;;;;;0.00;0.00;;;17.30;99.90;;;;;;5048939;28;20037;-87
2022/10/18 06:30:52;;;;;;;0.00;0.00;;;16.40;99.90;;;;;;5053742;28;20049;-87
2022/10/18 06:33:20;;;;;;;0.00;0.00;;;16.50;99.90;;;;;;5049969;28;20045;-88
2022/10/18 06:35:55;;;;;;;0.00;0.00;;;16.40;99.90;;;;;;5046791;28;20049;-88
2022/10/18 06:38:22;;;;;;;0.00;0.00;;;16.50;99.90;;;;;;5062494;28;20061;-87
2022/10/18 06:40:49;;;;;;;0.00;0.00;;;16.50;99.90;;;;;;5049086;28;20037;-87
2022/10/18 06:43:16;;;;;;;0.00;0.00;;;16.40;99.90;;;;;;5045882;28;20049;-88
2022/10/18 06:45:47;;;;;;;0.00;0.00;;;16.40;99.90;;;;;;5052294;28;20403;-87
2022/10/18 06:48:14;;;;;;;0.00;0.00;;;16.40;99.90;;;;;;5053650;28;20055;-87
2022/10/18 06:50:50;;;;;;;0.00;0.00;;;16.40;99.90;;;;;;5067684;28;20051;-87
2022/10/18 06:53:16;;;;;;;0.00;0.00;;;16.40;99.90;;;;;;5045630;28;20415;-85
2022/10/18 06:55:43;;;;;;;0.00;0.00;;;16.50;99.90;;;;;;5046106;28;20044;-88
2022/10/18 06:58:10;;;;;;;0.00;0.00;;;16.40;99.90;;;;;;5047944;28;20172;-87
2022/10/18 07:00:38;;;;;;;0.00;0.00;;;16.40;99.90;;;;;;5050372;28;20424;-87
2022/10/18 07:03:05;;;;;;;0.00;0.00;;;16.40;99.90;;;;;;5047624;28;20048;-88
2022/10/18 07:05:31;;;;;;;0.00;0.00;;;16.40;99.90;;;;;;5048519;28;20416;-87
2022/10/18 07:08:00;;;;;;;0.00;0.00;;;16.40;99.90;;;;;;5044699;28;20346;-88
2022/10/18 07:10:27;;;;;;;0.00;0.00;;;16.40;99.90;;;;;;5048354;28;20127;-86
2022/10/18 07:12:54;;;;;;;0.00;0.00;;;16.40;99.90;;;;;;5046936;28;20049;-88
2022/10/18 07:15:41;;;;;;;0.00;0.00;;;18.10;99.90;;;;;;5050029;28;20071;-85
2022/10/18 07:18:08;;;;;;;0.00;0.00;;;16.40;99.90;;;;;;5049998;28;20037;-87
2022/10/18 07:20:35;;;;;;;0.00;0.00;;;16.50;99.90;;;;;;5047277;28;20076;-87
2022/10/18 07:23:05;;;;;;;0.00;0.00;;;16.50;99.90;;;;;;5046600;28;20053;-88
2022/10/18 07:25:33;;;;;;;0.00;0.00;;;16.50;99.90;;;;;;5049738;28;20071;-88
2022/10/18 07:27:59;;;;;;;0.00;0.00;;;16.50;99.90;;;;;;5055675;28;20045;-88
2022/10/18 07:30:26;;;;;;;0.00;0.00;;;16.60;99.90;;;;;;5050397;28;20044;-88
2022/10/18 07:32:53;;;;;;;0.00;0.00;;;16.60;99.90;;;;;;5044892;28;20048;-85
2022/10/18 07:35:20;;;;;;;0.00;0.00;;;16.60;99.90;;;;;;5045264;28;20682;-88
2022/10/18 07:37:47;;;;;;;0.00;0.00;;;16.60;99.90;;;;;;5049962;28;20073;-88
2022/10/18 07:40:15;;;;;;;0.00;0.00;;;16.70;99.90;;;;;;5061426;28;20037;-88
2022/10/18 07:42:42;;;;;;;0.00;0.00;;;16.70;99.90;;;;;;5060435;28;20049;-87
2022/10/18 07:45:11;;;;;;;0.00;0.00;;;16.70;99.90;;;;;;5059531;28;20069;-87
2022/10/18 07:47:38;;;;;;;0.00;0.00;;;16.70;99.90;;;;;;5048628;28;20044;-88
2022/10/18 07:50:06;;;;;;;0.00;0.00;;;16.70;99.90;;;;;;5050403;28;20041;-87
2022/10/18 07:52:33;;;;;;;0.00;0.00;;;16.70;99.90;;;;;;5050911;28;20045;-88
2022/10/18 07:55:00;;;;;;;0.00;0.00;;;16.70;99.90;;;;;;5044501;28;20405;-87
2022/10/18 07:57:28;;;;;;;0.00;0.00;;;16.70;99.90;;;;;;5047204;28;20055;-88
2022/10/18 07:59:56;;;;;;;0.00;0.00;;;17.20;99.90;;;;;;5049267;28;20041;-88
2022/10/18 08:02:23;;;;;;;0.00;0.00;;;16.80;99.90;;;;;;5051980;28;20106;-87
2022/10/18 08:04:49;;;;;;;0.00;0.00;;;16.80;99.90;;;;;;5052035;28;20059;-87
2022/10/18 08:07:16;;;;;;;0.00;0.00;;;16.80;99.90;;;;;;5043590;28;20041;-88
2022/10/18 08:09:43;;;;;;;0.00;0.00;;;;;;;;;;5046341;28;20036;-88
2022/10/18 08:12:10;;;;;;;0.00;0.00;;;16.90;99.90;;;;;;5046721;28;20128;-88
2022/10/18 08:14:39;;;;;;;0.00;0.00;;;16.90;99.90;;;;;;5054437;28;20076;-88
2022/10/18 08:17:05;;;;;;;0.00;0.00;;;16.90;99.90;;;;;;5046296;28;20059;-86
2022/10/18 08:19:32;;;;;;;0.00;0.00;;;17.00;99.90;;;;;;5066247;28;20056;-88
2022/10/18 08:21:59;;;;;;;0.00;0.00;;;18.30;99.90;;;;;;5040334;28;20059;-88
2022/10/18 08:24:26;;;;;;;0.00;0.00;;;17.00;99.90;;;;;;5048196;28;20055;-88
2022/10/18 08:26:53;;;;;;;0.00;0.00;;;18.00;99.90;;;;;;5035848;28;20462;-87
2022/10/18 08:29:20;;;;;;;0.00;0.00;;;17.00;99.90;;;;;;5045319;28;20045;-88
2022/10/18 08:31:54;;;;;;;0.00;0.00;;;17.40;99.90;;;;;;5039442;28;20055;-88
2022/10/18 08:34:20;;;;;;;0.00;0.00;;;17.00;99.90;;;;;;5045402;28;20075;-88
2022/10/18 08:36:47;;;;;;;0.00;0.00;;;17.00;99.90;;;;;;5060273;28;20098;-87
2022/10/18 08:39:14;;;;;;;0.00;0.00;;;16.90;99.90;;;;;;5044053;28;20111;-88
2022/10/18 08:41:55;;;;;;;0.00;0.00;;;16.90;99.90;;;;;;5048926;28;20055;-88
2022/10/18 08:44:24;;;;;;;0.00;0.00;;;17.00;99.90;;;;;;5054019;28;20520;-87
2022/10/18 08:46:54;;;;;;;0.00;0.00;;;17.00;99.90;;;;;;5045002;28;20058;-87
2022/10/18 08:49:27;;;;;;;0.00;0.00;;;17.00;99.90;;;;;;5046393;28;20094;-88
2022/10/18 08:51:55;;;;;;;0.00;0.00;;;17.00;99.90;;;;;;5043610;28;20401;-88
2022/10/18 08:54:29;;;;;;;0.00;0.00;;;17.20;99.90;;;;;;5049767;28;20497;-87
2022/10/18 08:56:59;;;;;;;0.00;0.00;;;17.10;99.90;;;;;;5048744;28;20136;-87
2022/10/18 08:59:31;;;;;;;0.00;0.00;;;17.10;99.90;;;;;;5055585;28;20045;-88
2022/10/18 09:02:09;;;;;;;0.00;0.00;;;17.20;99.90;;;;;;5060260;28;20045;-88
2022/10/18 09:04:45;;;;;;;0.00;0.00;;;17.30;99.90;;;;;;5042931;28;20060;-88
2022/10/18 09:07:30;;;;;;;0.00;0.00;;;17.20;99.90;;;;;;5048324;28;20037;-88
2022/10/18 09:10:05;;;;;;;0.00;0.00;;;17.20;99.90;;;;;;5048008;28;20045;-86
2022/10/18 09:12:50;;;;;;;0.00;0.00;;;17.30;99.90;;;;;;5047882;28;20420;-88
2022/10/18 09:15:23;;;;;;;0.00;0.00;;;17.70;99.90;;;;;;5046819;28;20132;-87
2022/10/18 09:18:05;;;;;;;0.00;0.00;;;17.00;99.90;;;;;;5062387;28;20057;-86
2022/10/18 09:20:44;;;;;;;0.00;0.00;;;16.90;99.90;;;;;;5065532;28;20041;-86
2022/10/18 09:23:18;;;;;;;0.00;0.00;;;17.00;99.90;;;;;;5050725;28;20047;-88
2022/10/18 09:25:47;;;;;;;0.00;0.00;;;18.50;99.90;;;;;;5052526;28;20049;-88
2022/10/18 09:28:23;;;;;;;0.00;0.00;;;17.00;99.90;;;;;;5056073;28;20477;-87
2022/10/18 09:30:59;;;;;;;0.00;0.00;;;16.90;99.90;;;;;;5049836;28;20075;-87
2022/10/18 09:33:47;;;;;;;0.00;0.00;;;16.80;99.90;;;;;;5053977;28;20086;-86
2022/10/18 09:36:20;;;;;;;0.00;0.00;;;16.70;99.90;;;;;;5047978;28;20052;-83
2022/10/18 09:38:50;;;;;;;0.00;0.00;;;16.80;99.90;;;;;;5044680;28;20057;-85
2022/10/18 09:41:23;;;;;;;0.00;0.00;;;16.90;99.90;;;;;;5063435;28;20428;-88
2022/10/18 09:43:55;;;;;;;0.00;0.00;;;16.90;99.90;;;;;;5047072;28;20128;-86
2022/10/18 09:46:28;;;;;;;0.00;0.00;;;16.70;99.90;;;;;;5043563;28;20535;-86
2022/10/18 09:48:59;;;;;;;0.00;0.00;;;17.90;99.90;;;;;;5043395;28;20050;-84
2022/10/18 09:51:33;;;;;;;0.00;0.00;;;18.10;99.90;;;;;;5064308;28;20045;-87
2022/10/18 09:54:13;;;;;;;0.00;0.00;;;16.70;99.90;;;;;;5046464;28;20079;-86
2022/10/18 09:56:45;;;;;;;0.00;0.00;;;16.90;99.90;;;;;;5048959;28;20052;-87
2022/10/18 09:59:28;;;;;;;0.00;0.00;;;16.80;99.90;;;;;;5047072;28;20106;-87
2022/10/18 10:01:55;;;;;;;0.00;0.00;;;16.90;99.90;;;;;;5042548;28;20055;-86
2022/10/18 10:04:22;;;;;;;0.00;0.00;;;16.80;99.90;;;;;;5055558;28;21635;-87
2022/10/18 10:06:51;;;;;;;0.00;0.00;;;19.70;99.90;;;;;;5046137;28;20040;-86
2022/10/18 10:09:25;;;;;;;0.00;0.00;;;16.90;99.90;;;;;;5047551;28;20053;-87
2022/10/18 10:11:54;;;;;;;0.00;0.00;;;18.60;99.90;;;;;;5049883;28;20495;-85
2022/10/18 10:14:24;;;;;;;0.00;0.00;;;17.00;99.90;;;;;;5046909;28;20044;-86
2022/10/18 10:16:53;;;;;;;0.00;0.00;;;17.00;99.90;;;;;;5063806;28;20489;-86
2022/10/18 10:19:27;;;;;;;0.00;0.00;;;16.80;99.90;;;;;;5050474;28;20489;-87
2022/10/18 10:22:00;;;;;;;0.00;0.00;;;16.80;99.90;;;;;;5052002;28;20045;-88
2022/10/18 10:24:45;;;;;;;0.00;0.00;;;16.70;99.90;;;;;;5047095;28;20083;-86
2022/10/18 10:27:19;;;;;;;0.00;0.00;;;16.60;99.90;;;;;;5047824;28;20048;-86
2022/10/18 10:29:55;;;;;;;0.00;0.00;;;16.60;99.90;;;;;;5048138;28;20048;-87
2022/10/18 10:32:29;;;;;;;0.00;0.00;;;16.50;99.90;;;;;;5050131;28;20114;-87
2022/10/18 10:34:57;;;;;;;0.03;0.00;;;16.80;99.90;;;;;;5053467;28;20163;-83
2022/10/18 10:37:49;;;;;;;0.00;0.00;;;19.60;99.90;;;;;;5053810;28;20033;-87
2022/10/18 10:40:19;;;;;;;0.00;0.00;;;16.90;99.90;;;;;;5050475;28;20052;-86
2022/10/18 10:43:01;;;;;;;0.00;0.00;;;16.90;99.90;;;;;;5063630;28;20053;-87
2022/10/18 10:45:58;;;;;;;0.00;0.00;;;17.00;99.90;;;;;;5051318;28;20501;-87
2022/10/18 10:48:25;;;;;;;0.00;0.00;;;;;;;;;;5101425;22;20040;-87
2022/10/18 10:51:02;;;;;;;0.00;0.00;;;17.00;99.90;;;;;;5093122;28;20052;-86
2022/10/18 10:53:41;;;;;;;0.00;0.00;;;17.10;99.90;;;;;;5088627;28;20424;-86
2022/10/18 10:56:22;;;;;;;0.00;0.00;;;16.90;99.90;;;;;;5087651;28;20115;-85
2022/10/18 10:58:50;;;;;;;0.00;0.00;;;16.70;99.90;;;;;;5085581;28;20040;-85
2022/10/18 11:01:21;;;;;;;0.00;0.00;;;16.60;99.90;;;;;;5079833;28;20431;-87
2022/10/18 11:03:49;;;;;;;0.00;0.00;;;16.50;99.90;;;;;;5091396;28;20044;-86
2022/10/18 11:06:43;;;;;;;0.00;0.00;;;16.50;99.90;;;;;;5071001;28;20076;-85
2022/10/18 11:09:23;;;;;;;0.00;0.00;;;16.60;99.90;;;;;;5088674;28;20502;-84
2022/10/18 11:11:55;;;;;;;;;;;16.50;99.90;;;;;;5084191;28;20036;-86
2022/10/18 11:14:26;;;;;;;0.00;0.00;;;16.50;99.90;;;;;;5099879;28;19955;-86
2022/10/18 11:16:57;;;;;;;0.00;0.00;;;16.90;99.90;;;;;;5086098;28;20040;-82
2022/10/18 11:19:33;;;;;;;0.00;0.00;;;16.40;99.90;;;;;;5086130;28;20072;-84
2022/10/18 11:22:03;;;;;;;0.00;0.00;;;17.80;99.90;;;;;;5086127;28;20036;-86
2022/10/18 11:24:34;;;;;;;0.00;0.00;;;16.30;99.90;;;;;;5088438;28;20056;-87
2022/10/18 11:27:07;;;;;;;0.00;0.00;;;16.30;99.90;;;;;;5089762;28;20488;-83
2022/10/18 11:29:50;;;;;;;0.00;0.00;;;16.40;99.90;;;;;;5083795;28;20423;-85
2022/10/18 11:32:26;;;;;;;0.00;0.00;;;16.40;99.90;;;;;;5078709;28;20098;-85
2022/10/18 11:35:04;;;;;;;0.00;0.00;;;18.30;99.90;;;;;;5087709;28;20650;-86
2022/10/18 11:37:50;;;;;;;0.00;0.00;;;16.50;99.90;;;;;;5081576;28;20051;-87
2022/10/18 11:40:45;;;;;;;0.00;0.00;;;16.60;99.90;;;;;;5076011;28;20062;-85
2022/10/18 11:43:19;;;;;;;0.00;0.00;;;16.70;99.90;;;;;;5065715;28;20068;-86
2022/10/18 11:45:54;;;;;;;0.00;0.00;;;16.70;99.90;;;;;;5086162;28;20464;-85
2022/10/18 11:48:47;;;;;;;0.00;0.00;;;16.80;99.90;;;;;;5079305;28;20032;-85
2022/10/18 11:51:24;;;;;;;0.00;0.00;;;16.60;99.90;;;;;;5078183;28;20689;-86
2022/10/18 11:54:22;;;;;;;0.00;0.00;;;16.60;99.90;;;;;;5074428;28;20131;-86
2022/10/18 11:57:00;;;;;;;0.00;0.00;;;16.70;99.90;;;;;;5081755;28;20055;-86
2022/10/18 11:59:35;;;;;;;0.00;0.00;;;17.40;99.90;;;;;;5078454;28;20058;-85
2022/10/18 12:02:27;;;;;;;0.00;0.00;;;16.90;99.90;;;;;;5075759;28;20044;-87
2022/10/18 12:04:58;;;;;;;0.00;0.00;;;17.00;99.90;;;;;;5087593;28;20411;-85
2022/10/18 12:07:52;;;;;;;0.00;0.00;;;17.10;99.90;;;;;;5079521;28;20044;-84
2022/10/18 12:10:19;;;;;;;0.00;0.00;;;17.20;99.90;;;;;;5084111;28;20044;-85
2022/10/18 12:13:17;;;;;;;0.00;0.00;;;17.30;99.90;;;;;;5080374;28;20044;-86
2022/10/18 12:15:44;;;;;;;0.00;0.00;;;17.40;99.90;;;;;;5078990;28;20044;-86
2022/10/18 12:18:16;;;;;;;0.00;0.00;;;17.30;99.90;;;;;;5073024;28;20032;-89
2022/10/18 12:20:47;;;;;;;0.00;0.00;;;17.40;99.90;;;;;;5084283;28;20098;-86
2022/10/18 12:23:18;;;;;;;0.00;0.00;;;17.30;99.90;;;;;;5074706;28;20048;-85
2022/10/18 12:25:49;;;;;;;0.00;0.00;;;17.10;99.90;;;;;;5076773;28;20407;-84
2022/10/18 12:28:29;;;;;;;0.00;0.00;;;17.00;99.90;;;;;;5085853;28;20050;-86
2022/10/18 12:31:03;;;;;;;0.00;0.00;;;17.00;99.90;;;;;;5083923;28;20094;-85
2022/10/18 12:33:36;;;;;;;0.10;0.00;;;16.90;99.90;;;;;;5077987;28;20088;-86
2022/10/18 12:36:17;;;;;;;0.00;0.00;;;16.90;99.90;;;;;;5075961;28;20045;-87
2022/10/18 12:38:47;;;;;;;0.00;0.00;;;16.90;99.90;;;;;;5077614;28;20244;-85
2022/10/18 12:41:18;;;;;;;0.00;0.00;;;16.80;99.90;;;;;;5080246;28;20049;-86
2022/10/18 12:43:51;;;;;;;0.00;0.00;;;16.80;99.90;;;;;;5077461;28;20513;-86
2022/10/18 12:46:18;;;;;;;0.00;0.00;;;16.80;99.90;;;;;;5083690;28;20044;-85
2022/10/18 12:48:58;;;;;;;0.00;0.00;;;16.90;99.90;;;;;;5086077;28;20511;-85
2022/10/18 12:51:25;;;;;;;0.00;0.00;;;16.80;99.90;;;;;;5077395;28;20120;-85
2022/10/18 12:54:08;;;;;;;0.00;0.00;;;17.10;99.90;;;;;;5073653;28;20059;-85
2022/10/18 12:56:40;;;;;;;0.00;0.00;;;16.80;99.90;;;;;;5079870;28;20422;-84
2022/10/18 12:59:40;;;;;;;0.00;0.00;;;16.80;99.90;;;;;;5075688;28;20523;-85
2022/10/18 13:02:24;;;;;;;0.00;0.00;;;16.90;99.90;;;;;;5081379;28;20041;-86
2022/10/18 13:04:51;;;;;;;0.00;0.00;;;16.90;99.90;;;;;;5079161;28;20036;-86
2022/10/18 13:07:30;;;;;;;0.00;0.00;;;16.90;99.90;;;;;;5079256;28;20040;-85
2022/10/18 13:10:16;;;;;;;;;;;16.90;99.90;;;;;;5088058;28;20519;-85
2022/10/18 13:13:00;;;;;;;0.00;0.00;;;17.00;99.90;;;;;;5081274;28;20405;-82
2022/10/18 13:15:55;;;;;;;0.00;0.00;;;17.10;99.90;;;;;;5079946;28;20106;-84
2022/10/18 13:18:28;;;;;;;0.00;0.00;;;17.10;99.90;;;;;;5078168;28;20044;-86